createdAt,value
2023-04-07T00:00:47.345Z,92831.00
2023-04-07T00:01:47.325Z,92831.00
2023-04-07T00:02:47.322Z,92829.00
2023-04-07T00:03:47.378Z,92829.00
2023-04-07T00:04:47.387Z,92829.00
2023-04-07T00:05:47.242Z,92829.00
2023-04-07T00:06:47.217Z,92825.00
2023-04-07T00:07:55.808Z,92829.00
2023-04-07T00:08:48.160Z,92825.00
2023-04-07T00:09:47.140Z,92825.00
2023-04-07T00:10:47.101Z,92823.00
2023-04-07T00:11:47.065Z,92825.00
2023-04-07T00:12:47.044Z,92825.00
2023-04-07T00:13:47.022Z,92825.00
2023-04-07T00:14:46.995Z,92825.00
2023-04-07T00:15:46.969Z,92825.00
2023-04-07T00:16:46.927Z,92823.00
2023-04-07T00:17:46.920Z,92823.00
2023-04-07T00:18:46.863Z,92823.00
2023-04-07T00:19:46.845Z,92821.00
2023-04-07T00:20:46.797Z,92819.00
2023-04-07T00:21:46.763Z,92821.00
2023-04-07T00:22:46.738Z,92823.00
2023-04-07T00:23:46.698Z,92819.00
2023-04-07T00:24:46.669Z,92815.00
2023-04-07T00:25:46.641Z,92819.00
2023-04-07T00:26:46.605Z,92817.00
2023-04-07T00:27:46.572Z,92815.00
2023-04-07T00:28:46.539Z,92817.00
2023-04-07T00:29:46.520Z,92815.00
2023-04-07T00:30:46.473Z,92815.00
2023-04-07T00:31:46.584Z,92813.00
2023-04-07T00:32:46.499Z,92815.00
2023-04-07T00:33:46.368Z,92815.00
2023-04-07T00:34:46.337Z,92815.00
2023-04-07T00:35:46.328Z,92815.00
2023-04-07T00:36:46.262Z,92815.00
2023-04-07T00:37:46.241Z,92813.00
2023-04-07T00:38:46.213Z,92813.00
2023-04-07T00:39:46.245Z,92813.00
2023-04-07T00:40:46.127Z,92813.00
2023-04-07T00:41:46.099Z,92811.00
2023-04-07T00:42:46.060Z,92811.00
2023-04-07T00:43:46.027Z,92813.00
2023-04-07T00:44:46.015Z,92811.00
2023-04-07T00:45:45.984Z,92809.00
2023-04-07T00:46:46.043Z,92811.00
2023-04-07T00:47:46.008Z,92809.00
2023-04-07T00:48:45.899Z,92807.00
2023-04-07T00:49:45.873Z,92806.00
2023-04-07T00:50:45.852Z,92804.00
2023-04-07T00:51:45.833Z,92804.00
2023-04-07T00:52:45.811Z,92804.00
2023-04-07T00:53:46.731Z,92804.00
2023-04-07T00:54:45.767Z,92800.00
2023-04-07T00:55:45.744Z,92800.00
2023-04-07T00:56:45.730Z,92800.00
2023-04-07T00:57:45.717Z,92796.00
2023-04-07T00:58:45.812Z,92800.00
2023-04-07T00:59:45.695Z,92798.00
2023-04-07T01:00:45.678Z,92796.00
2023-04-07T01:01:45.696Z,92796.00
2023-04-07T01:02:45.828Z,92796.00
2023-04-07T01:03:45.984Z,92792.00
2023-04-07T01:04:45.647Z,92792.00
2023-04-07T01:05:45.588Z,92788.00
2023-04-07T01:06:45.560Z,92788.00
2023-04-07T01:07:45.688Z,92788.00
2023-04-07T01:08:45.528Z,92786.00
2023-04-07T01:09:45.492Z,92786.00
2023-04-07T01:10:45.476Z,92782.00
2023-04-07T01:11:45.450Z,92782.00
2023-04-07T01:12:45.422Z,92782.00
2023-04-07T01:13:45.391Z,92782.00
2023-04-07T01:14:45.385Z,92782.00
2023-04-07T01:15:45.402Z,92778.00
2023-04-07T01:16:45.320Z,92780.00
2023-04-07T01:17:45.333Z,92776.00
2023-04-07T01:18:45.279Z,92776.00
2023-04-07T01:19:45.261Z,92774.00
2023-04-07T01:20:45.233Z,92776.00
2023-04-07T01:21:45.242Z,92774.00
2023-04-07T01:22:45.221Z,92774.00
2023-04-07T01:23:45.207Z,92776.00
2023-04-07T01:24:45.190Z,92776.00
2023-04-07T01:25:45.227Z,92776.00
2023-04-07T01:26:45.187Z,92778.00
2023-04-07T01:27:45.163Z,92778.00
2023-04-07T01:28:45.143Z,92778.00
2023-04-07T01:29:45.132Z,92778.00
2023-04-07T01:30:45.137Z,92778.00
2023-04-07T01:31:45.178Z,92778.00
2023-04-07T01:32:45.181Z,92778.00
2023-04-07T01:33:45.110Z,92776.00
2023-04-07T01:34:45.112Z,92778.00
2023-04-07T01:35:45.739Z,92776.00
2023-04-07T01:36:45.094Z,92778.00
2023-04-07T01:37:45.054Z,92780.00
2023-04-07T01:38:45.035Z,92780.00
2023-04-07T01:39:45.013Z,92780.00
2023-04-07T01:40:45.014Z,92778.00
2023-04-07T01:41:44.993Z,92778.00
2023-04-07T01:42:44.985Z,92778.00
2023-04-07T01:43:46.251Z,92778.00
2023-04-07T01:44:44.944Z,92780.00
2023-04-07T01:45:44.936Z,92778.00
2023-04-07T01:46:44.957Z,92778.00
2023-04-07T01:47:44.940Z,92782.00
2023-04-07T01:48:44.926Z,92782.00
2023-04-07T01:49:44.934Z,92784.00
2023-04-07T01:50:44.919Z,92784.00
2023-04-07T01:51:44.933Z,92782.00
2023-04-07T01:52:44.916Z,92782.00
2023-04-07T01:53:44.905Z,92788.00
2023-04-07T01:54:44.876Z,92784.00
2023-04-07T01:55:44.876Z,92782.00
2023-04-07T01:56:44.854Z,92784.00
2023-04-07T01:57:44.827Z,92786.00
2023-04-07T01:58:44.837Z,92784.00
2023-04-07T01:59:44.823Z,92784.00
2023-04-07T02:00:44.880Z,92784.00
2023-04-07T02:01:44.923Z,92784.00
2023-04-07T02:02:45.006Z,92780.00
2023-04-07T02:03:44.893Z,92780.00
2023-04-07T02:04:44.766Z,92778.00
2023-04-07T02:05:44.731Z,92778.00
2023-04-07T02:06:44.711Z,92776.00
2023-04-07T02:07:44.697Z,92776.00
2023-04-07T02:08:44.664Z,92778.00
2023-04-07T02:09:44.642Z,92774.00
2023-04-07T02:10:44.617Z,92776.00
2023-04-07T02:11:44.589Z,92780.00
2023-04-07T02:12:44.573Z,92776.00
2023-04-07T02:13:44.538Z,92776.00
2023-04-07T02:14:44.514Z,92778.00
2023-04-07T02:15:44.493Z,92772.00
2023-04-07T02:16:45.800Z,92774.00
2023-04-07T02:17:44.496Z,92770.00
2023-04-07T02:18:44.413Z,92772.00
2023-04-07T02:19:44.366Z,92770.00
2023-04-07T02:20:44.358Z,92772.00
2023-04-07T02:21:44.314Z,92772.00
2023-04-07T02:22:44.279Z,92768.00
2023-04-07T02:23:44.244Z,92766.00
2023-04-07T02:24:44.208Z,92766.00
2023-04-07T02:25:44.176Z,92764.00
2023-04-07T02:26:44.157Z,92760.00
2023-04-07T02:27:44.106Z,92760.00
2023-04-07T02:28:44.091Z,92764.00
2023-04-07T02:29:44.044Z,92757.00
2023-04-07T02:30:44.015Z,92757.00
2023-04-07T02:31:44.031Z,92755.00
2023-04-07T02:32:44.009Z,92755.00
2023-04-07T02:33:43.932Z,92751.00
2023-04-07T02:34:43.915Z,92749.00
2023-04-07T02:35:43.883Z,92745.00
2023-04-07T02:36:43.892Z,92743.00
2023-04-07T02:37:43.832Z,92743.00
2023-04-07T02:38:43.812Z,92741.00
2023-04-07T02:39:43.784Z,92739.00
2023-04-07T02:40:43.755Z,92739.00
2023-04-07T02:41:43.715Z,92741.00
2023-04-07T02:42:43.707Z,92741.00
2023-04-07T02:43:43.675Z,92741.00
2023-04-07T02:44:43.655Z,92741.00
2023-04-07T02:45:43.674Z,92739.00
2023-04-07T02:46:43.608Z,92739.00
2023-04-07T02:47:43.649Z,92739.00
2023-04-07T02:48:43.581Z,92737.00
2023-04-07T02:49:43.544Z,92735.00
2023-04-07T02:50:43.533Z,92733.00
2023-04-07T02:51:43.513Z,92733.00
2023-04-07T02:52:43.476Z,92733.00
2023-04-07T02:53:43.441Z,92731.00
2023-04-07T02:54:43.414Z,92735.00
2023-04-07T02:55:43.383Z,92737.00
2023-04-07T02:56:43.370Z,92735.00
2023-04-07T02:57:43.338Z,92735.00
2023-04-07T02:58:43.306Z,92733.00
2023-04-07T02:59:43.270Z,92735.00
2023-04-07T03:00:43.251Z,92735.00
2023-04-07T03:01:43.263Z,92735.00
2023-04-07T03:02:43.319Z,92735.00
2023-04-07T03:03:43.200Z,92735.00
2023-04-07T03:04:43.130Z,92735.00
2023-04-07T03:05:43.114Z,92735.00
2023-04-07T03:06:43.090Z,92735.00
2023-04-07T03:07:43.055Z,92735.00
2023-04-07T03:08:43.074Z,92731.00
2023-04-07T03:09:43.008Z,92733.00
2023-04-07T03:10:42.986Z,92731.00
2023-04-07T03:11:42.977Z,92729.00
2023-04-07T03:12:42.954Z,92729.00
2023-04-07T03:13:42.890Z,92727.00
2023-04-07T03:14:42.862Z,92729.00
2023-04-07T03:15:42.830Z,92725.00
2023-04-07T03:16:42.827Z,92725.00
2023-04-07T03:17:42.768Z,92723.00
2023-04-07T03:18:42.724Z,92725.00
2023-04-07T03:19:42.717Z,92721.00
2023-04-07T03:20:42.670Z,92723.00
2023-04-07T03:21:42.636Z,92721.00
2023-04-07T03:22:42.602Z,92719.00
2023-04-07T03:23:42.669Z,92719.00
2023-04-07T03:24:42.540Z,92719.00
2023-04-07T03:25:42.562Z,92717.00
2023-04-07T03:26:42.504Z,92715.00
2023-04-07T03:27:42.493Z,92717.00
2023-04-07T03:28:42.472Z,92715.00
2023-04-07T03:29:42.444Z,92715.00
2023-04-07T03:30:42.455Z,92712.00
2023-04-07T03:31:42.393Z,92712.00
2023-04-07T03:32:42.383Z,92712.00
2023-04-07T03:33:42.326Z,92710.00
2023-04-07T03:34:42.281Z,92712.00
2023-04-07T03:35:42.321Z,92712.00
2023-04-07T03:36:42.216Z,92713.00
2023-04-07T03:37:42.192Z,92712.00
2023-04-07T03:38:42.150Z,92712.00
2023-04-07T03:39:42.140Z,92708.00
2023-04-07T03:40:42.083Z,92704.00
2023-04-07T03:41:42.035Z,92708.00
2023-04-07T03:42:42.022Z,92706.00
2023-04-07T03:43:41.994Z,92704.00
2023-04-07T03:44:41.991Z,92706.00
2023-04-07T03:45:41.965Z,92704.00
2023-04-07T03:46:42.273Z,92706.00
2023-04-07T03:47:41.926Z,92704.00
2023-04-07T03:48:41.891Z,92704.00
2023-04-07T03:49:41.845Z,92702.00
2023-04-07T03:50:41.804Z,92704.00
2023-04-07T03:51:41.777Z,92702.00
2023-04-07T03:52:41.742Z,92698.00
2023-04-07T03:53:41.706Z,92698.00
2023-04-07T03:54:41.675Z,92698.00
2023-04-07T03:55:41.660Z,92698.00
2023-04-07T03:56:41.635Z,92698.00
2023-04-07T03:57:41.582Z,92698.00
2023-04-07T03:58:41.542Z,92698.00
2023-04-07T03:59:41.630Z,92696.00
2023-04-07T04:00:41.483Z,92696.00
2023-04-07T04:01:41.484Z,92696.00
2023-04-07T04:02:41.522Z,92694.00
2023-04-07T04:03:41.512Z,92696.00
2023-04-07T04:04:41.404Z,92694.00
2023-04-07T04:05:41.344Z,92696.00
2023-04-07T04:06:41.294Z,92696.00
2023-04-07T04:07:41.263Z,92696.00
2023-04-07T04:08:41.219Z,92698.00
2023-04-07T04:09:41.182Z,92698.00
2023-04-07T04:10:41.158Z,92700.00
2023-04-07T04:11:41.127Z,92698.00
2023-04-07T04:12:41.115Z,92700.00
2023-04-07T04:13:41.077Z,92700.00
2023-04-07T04:14:41.032Z,92700.00
2023-04-07T04:15:41.034Z,92700.00
2023-04-07T04:16:40.988Z,92696.00
2023-04-07T04:17:40.974Z,92698.00
2023-04-07T04:18:40.908Z,92696.00
2023-04-07T04:19:40.884Z,92696.00
2023-04-07T04:20:40.846Z,92698.00
2023-04-07T04:21:40.805Z,92694.00
2023-04-07T04:22:40.769Z,92698.00
2023-04-07T04:23:40.747Z,92694.00
2023-04-07T04:24:40.695Z,92692.00
2023-04-07T04:25:40.691Z,92692.00
2023-04-07T04:26:40.654Z,92692.00
2023-04-07T04:27:40.614Z,92690.00
2023-04-07T04:28:40.574Z,92692.00
2023-04-07T04:29:40.574Z,92690.00
2023-04-07T04:30:40.528Z,92690.00
2023-04-07T04:31:40.535Z,92690.00
2023-04-07T04:32:40.536Z,92690.00
2023-04-07T04:33:40.507Z,92690.00
2023-04-07T04:34:40.512Z,92690.00
2023-04-07T04:35:40.507Z,92690.00
2023-04-07T04:36:40.542Z,92692.00
2023-04-07T04:37:40.513Z,92690.00
2023-04-07T04:38:40.482Z,92692.00
2023-04-07T04:39:40.456Z,92694.00
2023-04-07T04:40:40.422Z,92694.00
2023-04-07T04:41:40.432Z,92694.00
2023-04-07T04:42:40.360Z,92692.00
2023-04-07T04:43:40.331Z,92692.00
2023-04-07T04:44:40.314Z,92690.00
2023-04-07T04:45:40.289Z,92694.00
2023-04-07T04:46:40.311Z,92694.00
2023-04-07T04:47:40.286Z,92696.00
2023-04-07T04:48:40.200Z,92694.00
2023-04-07T04:49:40.163Z,92696.00
2023-04-07T04:50:40.138Z,92698.00
2023-04-07T04:51:40.133Z,92700.00
2023-04-07T04:52:40.117Z,92702.00
2023-04-07T04:53:40.085Z,92700.00
2023-04-07T04:54:40.092Z,92704.00
2023-04-07T04:55:40.069Z,92704.00
2023-04-07T04:56:40.054Z,92704.00
2023-04-07T04:57:40.048Z,92702.00
2023-04-07T04:58:40.007Z,92706.00
2023-04-07T04:59:39.989Z,92706.00
2023-04-07T05:00:39.989Z,92706.00
2023-04-07T05:01:40.021Z,92704.00
2023-04-07T05:02:40.098Z,92706.00
2023-04-07T05:03:39.969Z,92706.00
2023-04-07T05:04:39.986Z,92708.00
2023-04-07T05:05:39.811Z,92708.00
2023-04-07T05:06:39.784Z,92710.00
2023-04-07T05:07:39.771Z,92710.00
2023-04-07T05:08:39.743Z,92708.00
2023-04-07T05:09:39.708Z,92710.00
2023-04-07T05:10:39.681Z,92710.00
2023-04-07T05:11:39.660Z,92712.00
2023-04-07T05:12:39.628Z,92710.00
2023-04-07T05:13:39.615Z,92712.00
2023-04-07T05:14:39.565Z,92710.00
2023-04-07T05:15:39.556Z,92712.00
2023-04-07T05:16:39.579Z,92713.00
2023-04-07T05:17:39.503Z,92713.00
2023-04-07T05:18:39.452Z,92713.00
2023-04-07T05:19:39.422Z,92713.00
2023-04-07T05:20:39.374Z,92712.00
2023-04-07T05:21:39.365Z,92713.00
2023-04-07T05:22:39.342Z,92712.00
2023-04-07T05:23:39.340Z,92712.00
2023-04-07T05:24:39.336Z,92710.00
2023-04-07T05:25:39.297Z,92710.00
2023-04-07T05:26:39.304Z,92710.00
2023-04-07T05:27:39.310Z,92710.00
2023-04-07T05:28:39.324Z,92710.00
2023-04-07T05:29:39.274Z,92708.00
2023-04-07T05:30:39.271Z,92708.00
2023-04-07T05:31:39.244Z,92706.00
2023-04-07T05:32:39.269Z,92704.00
2023-04-07T05:33:39.241Z,92702.00
2023-04-07T05:34:39.184Z,92700.00
2023-04-07T05:35:39.173Z,92702.00
2023-04-07T05:36:39.137Z,92700.00
2023-04-07T05:37:39.126Z,92698.00
2023-04-07T05:38:39.097Z,92696.00
2023-04-07T05:39:39.106Z,92696.00
2023-04-07T05:40:39.104Z,92696.00
2023-04-07T05:41:39.080Z,92696.00
2023-04-07T05:42:39.060Z,92696.00
2023-04-07T05:43:39.036Z,92694.00
2023-04-07T05:44:39.017Z,92690.00
2023-04-07T05:45:38.998Z,92690.00
2023-04-07T05:46:38.963Z,92690.00
2023-04-07T05:47:38.984Z,92688.00
2023-04-07T05:48:38.902Z,92690.00
2023-04-07T05:49:38.885Z,92688.00
2023-04-07T05:50:38.880Z,92688.00
2023-04-07T05:51:38.830Z,92690.00
2023-04-07T05:52:38.805Z,92690.00
2023-04-07T05:53:38.772Z,92688.00
2023-04-07T05:54:38.738Z,92688.00
2023-04-07T05:55:38.743Z,92690.00
2023-04-07T05:56:38.730Z,92692.00
2023-04-07T05:57:38.706Z,92696.00
2023-04-07T05:58:38.691Z,92696.00
2023-04-07T05:59:38.679Z,92698.00
2023-04-07T06:00:38.734Z,92698.00
2023-04-07T06:01:38.746Z,92694.00
2023-04-07T06:02:38.765Z,92696.00
2023-04-07T06:03:38.789Z,92694.00
2023-04-07T06:04:38.681Z,92692.00
2023-04-07T06:05:38.726Z,92690.00
2023-04-07T06:06:38.694Z,92692.00
2023-04-07T06:07:38.691Z,92692.00
2023-04-07T06:08:38.712Z,92692.00
2023-04-07T06:09:38.738Z,92692.00
2023-04-07T06:10:38.766Z,92694.00
2023-04-07T06:11:38.791Z,92692.00
2023-04-07T06:12:38.797Z,92690.00
2023-04-07T06:13:38.818Z,92690.00
2023-04-07T06:14:38.831Z,92692.00
2023-04-07T06:15:38.856Z,92690.00
2023-04-07T06:16:38.936Z,92688.00
2023-04-07T06:17:38.924Z,92688.00
2023-04-07T06:18:38.921Z,92688.00
2023-04-07T06:19:38.937Z,92690.00
2023-04-07T06:20:38.980Z,92690.00
2023-04-07T06:21:45.849Z,92688.00
2023-04-07T06:22:38.993Z,92688.00
2023-04-07T06:23:38.955Z,92690.00
2023-04-07T06:24:38.935Z,92690.00
2023-04-07T06:25:38.903Z,92686.00
2023-04-07T06:26:38.890Z,92686.00
2023-04-07T06:27:38.822Z,92688.00
2023-04-07T06:28:38.817Z,92690.00
2023-04-07T06:29:38.768Z,92690.00
2023-04-07T06:30:38.759Z,92690.00
2023-04-07T06:31:38.696Z,92694.00
2023-04-07T06:32:38.681Z,92692.00
2023-04-07T06:33:38.643Z,92692.00
2023-04-07T06:34:38.592Z,92690.00
2023-04-07T06:35:38.538Z,92690.00
2023-04-07T06:36:39.414Z,92688.00
2023-04-07T06:37:38.484Z,92688.00
2023-04-07T06:38:38.449Z,92684.00
2023-04-07T06:39:38.416Z,92684.00
2023-04-07T06:40:38.372Z,92686.00
2023-04-07T06:41:38.363Z,92684.00
2023-04-07T06:42:38.323Z,92682.00
2023-04-07T06:43:38.301Z,92680.00
2023-04-07T06:44:38.328Z,92680.00
2023-04-07T06:45:38.509Z,92676.00
2023-04-07T06:46:38.363Z,92676.00
2023-04-07T06:47:38.436Z,92676.00
2023-04-07T06:48:38.388Z,92672.00
2023-04-07T06:49:38.427Z,92676.00
2023-04-07T06:50:38.461Z,92674.00
2023-04-07T06:51:38.486Z,92674.00
2023-04-07T06:52:38.539Z,92672.00
2023-04-07T06:53:38.584Z,92670.00
2023-04-07T06:54:38.623Z,92668.00
2023-04-07T06:55:38.666Z,92666.00
2023-04-07T06:56:38.708Z,92666.00
2023-04-07T06:57:38.733Z,92666.00
2023-04-07T06:58:38.787Z,92665.00
2023-04-07T06:59:38.812Z,92663.00
2023-04-07T07:00:39.122Z,92661.00
2023-04-07T07:01:38.948Z,92661.00
2023-04-07T07:02:39.060Z,92659.00
2023-04-07T07:03:39.126Z,92657.00
2023-04-07T07:04:39.017Z,92655.00
2023-04-07T07:05:39.076Z,92659.00
2023-04-07T07:06:39.109Z,92659.00
2023-04-07T07:07:39.151Z,92655.00
2023-04-07T07:08:39.184Z,92655.00
2023-04-07T07:09:39.218Z,92655.00
2023-04-07T07:10:39.262Z,92653.00
2023-04-07T07:11:39.288Z,92657.00
2023-04-07T07:12:39.316Z,92649.00
2023-04-07T07:13:39.370Z,92649.00
2023-04-07T07:14:39.401Z,92651.00
2023-04-07T07:15:39.477Z,92651.00
2023-04-07T07:16:39.501Z,92651.00
2023-04-07T07:17:39.515Z,92651.00
2023-04-07T07:18:39.391Z,92651.00
2023-04-07T07:19:39.362Z,92649.00
2023-04-07T07:20:39.346Z,92651.00
2023-04-07T07:21:40.914Z,92647.00
2023-04-07T07:22:39.276Z,92647.00
2023-04-07T07:23:39.882Z,92647.00
2023-04-07T07:24:39.370Z,92645.00
2023-04-07T07:25:39.377Z,92643.00
2023-04-07T07:26:39.426Z,92643.00
2023-04-07T07:27:39.404Z,92643.00
2023-04-07T07:28:39.378Z,92643.00
2023-04-07T07:29:39.331Z,92641.00
2023-04-07T07:30:39.298Z,92641.00
2023-04-07T07:31:39.295Z,92639.00
2023-04-07T07:32:39.588Z,92635.00
2023-04-07T07:33:39.194Z,92635.00
2023-04-07T07:34:39.894Z,92635.00
2023-04-07T07:35:39.114Z,92631.00
2023-04-07T07:36:39.091Z,92631.00
2023-04-07T07:37:39.102Z,92633.00
2023-04-07T07:38:39.135Z,92631.00
2023-04-07T07:39:39.166Z,92631.00
2023-04-07T07:40:39.212Z,92629.00
2023-04-07T07:41:39.831Z,92625.00
2023-04-07T07:42:39.307Z,92621.00
2023-04-07T07:43:39.310Z,92621.00
2023-04-07T07:44:39.294Z,92621.00
2023-04-07T07:45:39.469Z,92619.00
2023-04-07T07:46:39.268Z,92612.00
2023-04-07T07:47:39.934Z,92610.00
2023-04-07T07:48:39.133Z,92608.00
2023-04-07T07:49:39.102Z,92608.00
2023-04-07T07:50:39.913Z,92610.00
2023-04-07T07:51:39.020Z,92606.00
2023-04-07T07:52:39.886Z,92606.00
2023-04-07T07:53:38.966Z,92602.00
2023-04-07T07:54:39.398Z,92602.00
2023-04-07T07:55:38.894Z,92598.00
2023-04-07T07:56:38.867Z,92600.00
2023-04-07T07:57:38.836Z,92598.00
2023-04-07T07:58:38.796Z,92594.00
2023-04-07T07:59:38.763Z,92592.00
2023-04-07T08:00:38.744Z,92594.00
2023-04-07T08:01:39.488Z,92594.00
2023-04-07T08:02:39.004Z,92592.00
2023-04-07T08:03:38.958Z,92589.00
2023-04-07T08:04:38.964Z,92589.00
2023-04-07T08:05:38.873Z,92590.00
2023-04-07T08:06:38.808Z,92587.00
2023-04-07T08:07:38.795Z,92589.00
2023-04-07T08:08:38.744Z,92587.00
2023-04-07T08:09:39.389Z,92584.00
2023-04-07T08:10:38.867Z,92581.00
2023-04-07T08:11:38.863Z,92577.00
2023-04-07T08:12:38.861Z,92577.00
2023-04-07T08:13:38.864Z,92577.00
2023-04-07T08:14:38.843Z,92575.00
2023-04-07T08:15:38.800Z,92575.00
2023-04-07T08:16:38.861Z,92573.00
2023-04-07T08:17:38.770Z,92571.00
2023-04-07T08:18:38.706Z,92571.00
2023-04-07T08:19:38.667Z,92565.00
2023-04-07T08:20:38.650Z,92563.00
2023-04-07T08:21:38.596Z,92563.00
2023-04-07T08:22:38.591Z,92563.00
2023-04-07T08:23:38.538Z,92561.00
2023-04-07T08:24:38.506Z,92561.00
2023-04-07T08:25:38.472Z,92563.00
2023-04-07T08:26:38.437Z,92559.00
2023-04-07T08:27:38.406Z,92559.00
2023-04-07T08:28:38.359Z,92555.00
2023-04-07T08:29:38.909Z,92553.00
2023-04-07T08:30:38.297Z,92553.00
2023-04-07T08:31:38.365Z,92557.00
2023-04-07T08:32:38.307Z,92553.00
2023-04-07T08:33:38.225Z,92551.00
2023-04-07T08:34:38.169Z,92553.00
2023-04-07T08:35:38.411Z,92553.00
2023-04-07T08:36:38.167Z,92549.00
2023-04-07T08:37:38.176Z,92549.00
2023-04-07T08:38:38.187Z,92551.00
2023-04-07T08:39:38.187Z,92547.00
2023-04-07T08:40:38.211Z,92549.00
2023-04-07T08:41:38.216Z,92547.00
2023-04-07T08:42:38.247Z,92547.00
2023-04-07T08:43:38.151Z,92549.00
2023-04-07T08:44:38.238Z,92547.00
2023-04-07T08:45:38.076Z,92545.00
2023-04-07T08:46:38.053Z,92541.00
2023-04-07T08:47:38.054Z,92541.00
2023-04-07T08:48:37.957Z,92541.00
2023-04-07T08:49:37.929Z,92541.00
2023-04-07T08:50:39.395Z,92539.00
2023-04-07T08:51:37.899Z,92539.00
2023-04-07T08:52:37.818Z,92539.00
2023-04-07T08:53:37.787Z,92539.00
2023-04-07T08:54:37.741Z,92537.00
2023-04-07T08:55:37.733Z,92537.00
2023-04-07T08:56:37.678Z,92537.00
2023-04-07T08:57:37.638Z,92537.00
2023-04-07T08:58:37.602Z,92535.00
2023-04-07T08:59:37.581Z,92534.00
2023-04-07T09:00:37.535Z,92532.00
2023-04-07T09:01:39.499Z,92528.00
2023-04-07T09:02:38.488Z,92530.00
2023-04-07T09:03:37.503Z,92528.00
2023-04-07T09:04:37.379Z,92526.00
2023-04-07T09:05:37.353Z,92524.00
2023-04-07T09:06:38.949Z,92524.00
2023-04-07T09:07:37.273Z,92524.00
2023-04-07T09:08:37.246Z,92524.00
2023-04-07T09:09:37.197Z,92520.00
2023-04-07T09:10:37.162Z,92518.00
2023-04-07T09:11:37.135Z,92516.00
2023-04-07T09:12:37.085Z,92518.00
2023-04-07T09:13:37.064Z,92516.00
2023-04-07T09:14:37.021Z,92516.00
2023-04-07T09:15:38.649Z,92512.00
2023-04-07T09:16:37.068Z,92514.00
2023-04-07T09:17:36.972Z,92510.00
2023-04-07T09:18:36.878Z,92512.00
2023-04-07T09:19:36.857Z,92508.00
2023-04-07T09:20:36.802Z,92508.00
2023-04-07T09:21:36.801Z,92504.00
2023-04-07T09:22:36.755Z,92504.00
2023-04-07T09:23:36.722Z,92500.00
2023-04-07T09:24:36.686Z,92498.00
2023-04-07T09:25:36.630Z,92502.00
2023-04-07T09:26:36.594Z,92495.00
2023-04-07T09:27:36.569Z,92496.00
2023-04-07T09:28:37.407Z,92495.00
2023-04-07T09:29:36.487Z,92493.00
2023-04-07T09:30:37.411Z,92490.00
2023-04-07T09:31:36.469Z,92490.00
2023-04-07T09:32:36.434Z,92488.00
2023-04-07T09:33:36.346Z,92485.00
2023-04-07T09:34:39.758Z,92483.00
2023-04-07T09:35:36.283Z,92483.00
2023-04-07T09:36:36.229Z,92483.00
2023-04-07T09:37:36.184Z,92477.00
2023-04-07T09:38:36.207Z,92473.00
2023-04-07T09:39:36.115Z,92473.00
2023-04-07T09:40:36.060Z,92471.00
2023-04-07T09:41:36.126Z,92469.00
2023-04-07T09:42:35.989Z,92467.00
2023-04-07T09:43:35.951Z,92465.00
2023-04-07T09:44:35.906Z,92465.00
2023-04-07T09:45:37.095Z,92463.00
2023-04-07T09:46:35.938Z,92465.00
2023-04-07T09:47:35.837Z,92461.00
2023-04-07T09:48:35.753Z,92459.00
2023-04-07T09:49:36.420Z,92455.00
2023-04-07T09:50:35.696Z,92453.00
2023-04-07T09:51:35.962Z,92451.00
2023-04-07T09:52:35.608Z,92451.00
2023-04-07T09:53:35.569Z,92447.00
2023-04-07T09:54:35.560Z,92449.00
2023-04-07T09:55:35.496Z,92447.00
2023-04-07T09:56:35.460Z,92447.00
2023-04-07T09:57:35.448Z,92443.00
2023-04-07T09:58:35.403Z,92441.00
2023-04-07T09:59:35.363Z,92443.00
2023-04-07T10:00:35.361Z,92441.00
2023-04-07T10:01:35.386Z,92443.00
2023-04-07T10:02:35.429Z,92438.00
2023-04-07T10:03:35.382Z,92440.00
2023-04-07T10:04:35.363Z,92436.00
2023-04-07T10:05:35.326Z,92436.00
2023-04-07T10:06:35.311Z,92432.00
2023-04-07T10:07:35.312Z,92430.00
2023-04-07T10:08:35.318Z,92428.00
2023-04-07T10:09:35.324Z,92424.00
2023-04-07T10:10:35.261Z,92420.00
2023-04-07T10:11:35.237Z,92420.00
2023-04-07T10:12:35.199Z,92416.00
2023-04-07T10:13:35.189Z,92418.00
2023-04-07T10:14:35.149Z,92418.00
2023-04-07T10:15:35.105Z,92412.00
2023-04-07T10:16:35.128Z,92412.00
2023-04-07T10:17:35.081Z,92412.00
2023-04-07T10:18:35.026Z,92410.00
2023-04-07T10:19:34.984Z,92410.00
2023-04-07T10:20:34.950Z,92410.00
2023-04-07T10:21:34.921Z,92408.00
2023-04-07T10:22:34.882Z,92408.00
2023-04-07T10:23:34.851Z,92404.00
2023-04-07T10:24:34.830Z,92404.00
2023-04-07T10:25:34.935Z,92402.00
2023-04-07T10:26:34.756Z,92404.00
2023-04-07T10:27:34.727Z,92401.00
2023-04-07T10:28:34.669Z,92402.00
2023-04-07T10:29:34.633Z,92401.00
2023-04-07T10:30:35.454Z,92399.00
2023-04-07T10:31:34.609Z,92396.00
2023-04-07T10:32:34.539Z,92399.00
2023-04-07T10:33:34.498Z,92396.00
2023-04-07T10:34:34.457Z,92396.00
2023-04-07T10:35:34.505Z,92393.00
2023-04-07T10:36:34.378Z,92391.00
2023-04-07T10:37:34.362Z,92391.00
2023-04-07T10:38:34.319Z,92391.00
2023-04-07T10:39:34.272Z,92387.00
2023-04-07T10:40:34.226Z,92385.00
2023-04-07T10:41:34.461Z,92383.00
2023-04-07T10:42:34.127Z,92383.00
2023-04-07T10:43:34.101Z,92383.00
2023-04-07T10:44:34.053Z,92379.00
2023-04-07T10:45:34.024Z,92377.00
2023-04-07T10:46:34.068Z,92373.00
2023-04-07T10:47:33.978Z,92375.00
2023-04-07T10:48:33.893Z,92371.00
2023-04-07T10:49:33.858Z,92371.00
2023-04-07T10:50:34.451Z,92369.00
2023-04-07T10:51:33.791Z,92367.00
2023-04-07T10:52:33.741Z,92367.00
2023-04-07T10:53:33.704Z,92365.00
2023-04-07T10:54:33.662Z,92356.00
2023-04-07T10:55:33.645Z,92354.00
2023-04-07T10:56:33.577Z,92354.00
2023-04-07T10:57:33.540Z,92352.00
2023-04-07T10:58:33.511Z,92350.00
2023-04-07T10:59:33.480Z,92350.00
2023-04-07T11:00:33.414Z,92348.00
2023-04-07T11:01:33.451Z,92346.00
2023-04-07T11:02:33.613Z,92346.00
2023-04-07T11:03:33.484Z,92344.00
2023-04-07T11:04:33.419Z,92346.00
2023-04-07T11:05:33.213Z,92342.00
2023-04-07T11:06:33.176Z,92340.00
2023-04-07T11:07:33.150Z,92340.00
2023-04-07T11:08:33.103Z,92344.00
2023-04-07T11:09:33.065Z,92338.00
2023-04-07T11:10:33.017Z,92340.00
2023-04-07T11:11:32.985Z,92342.00
2023-04-07T11:12:32.943Z,92336.00
2023-04-07T11:13:32.914Z,92340.00
2023-04-07T11:14:32.856Z,92340.00
2023-04-07T11:15:32.811Z,92336.00
2023-04-07T11:16:32.896Z,92336.00
2023-04-07T11:17:32.789Z,92334.00
2023-04-07T11:18:32.692Z,92336.00
2023-04-07T11:19:32.658Z,92332.00
2023-04-07T11:20:32.698Z,92334.00
2023-04-07T11:21:32.568Z,92334.00
2023-04-07T11:22:32.520Z,92332.00
2023-04-07T11:23:32.482Z,92332.00
2023-04-07T11:24:32.448Z,92332.00
2023-04-07T11:25:32.411Z,92332.00
2023-04-07T11:26:32.368Z,92330.00
2023-04-07T11:27:32.355Z,92332.00
2023-04-07T11:28:32.325Z,92330.00
2023-04-07T11:29:32.290Z,92328.00
2023-04-07T11:30:32.276Z,92328.00
2023-04-07T11:31:32.272Z,92330.00
2023-04-07T11:32:32.243Z,92328.00
2023-04-07T11:33:32.275Z,92326.00
2023-04-07T11:34:32.181Z,92324.00
2023-04-07T11:35:32.198Z,92326.00
2023-04-07T11:36:32.152Z,92324.00
2023-04-07T11:37:32.125Z,92326.00
2023-04-07T11:38:32.093Z,92324.00
2023-04-07T11:39:32.076Z,92324.00
2023-04-07T11:40:32.069Z,92324.00
2023-04-07T11:41:32.050Z,92320.00
2023-04-07T11:42:32.021Z,92320.00
2023-04-07T11:43:31.997Z,92318.00
2023-04-07T11:44:31.971Z,92318.00